createdAt,value
2018-11-26T00:00:46.610Z,99.90
2018-11-26T00:03:16.509Z,99.90
2018-11-26T00:05:46.412Z,99.90
2018-11-26T00:08:16.297Z,99.90
2018-11-26T00:12:00.537Z,99.90
2018-11-26T00:14:31.368Z,99.90
2018-11-26T00:17:01.266Z,99.90
2018-11-26T00:19:31.141Z,99.90
2018-11-26T00:22:01.062Z,99.90
2018-11-26T00:24:31.001Z,99.90
2018-11-26T00:27:01.040Z,99.90
2018-11-26T00:29:31.001Z,99.90
2018-11-26T00:32:00.976Z,99.90
2018-11-26T00:34:30.879Z,99.90
2018-11-26T00:37:00.883Z,99.90
2018-11-26T00:39:30.763Z,99.90
2018-11-26T00:44:32.447Z,99.90
2018-11-26T00:47:02.455Z,99.90
2018-11-26T00:49:32.346Z,99.90
2018-11-26T00:52:02.269Z,99.90
2018-11-26T00:54:32.146Z,99.90
2018-11-26T00:57:02.074Z,99.90
2018-11-26T00:59:31.981Z,99.90
2018-11-26T01:02:01.885Z,99.90
2018-11-26T01:04:31.876Z,99.90
2018-11-26T01:07:01.840Z,99.90
2018-11-26T01:09:31.736Z,99.90
2018-11-26T01:12:01.671Z,99.90
2018-11-26T01:14:31.579Z,99.90
2018-11-26T01:17:01.470Z,99.90
2018-11-26T01:19:31.320Z,99.90
2018-11-26T01:22:01.208Z,99.90
2018-11-26T01:24:31.131Z,99.90
2018-11-26T01:27:00.985Z,99.90
2018-11-26T01:29:30.900Z,99.90
2018-11-26T01:32:00.807Z,99.90
2018-11-26T01:34:30.708Z,99.90
2018-11-26T01:37:00.625Z,99.90
2018-11-26T01:39:30.571Z,99.90
2018-11-26T01:42:00.558Z,99.90
2018-11-26T01:44:30.451Z,99.90
2018-11-26T01:47:00.395Z,99.90
2018-11-26T01:49:30.291Z,99.90
2018-11-26T01:52:00.280Z,99.90
2018-11-26T01:54:30.170Z,99.90
2018-11-26T01:57:00.136Z,99.90
2018-11-26T01:59:30.032Z,99.90
2018-11-26T02:02:00.015Z,99.90
2018-11-26T02:04:30.033Z,99.90
2018-11-26T02:06:59.947Z,99.90
2018-11-26T02:09:29.871Z,99.90
2018-11-26T02:11:59.782Z,99.90
2018-11-26T02:14:29.682Z,99.90
2018-11-26T02:16:59.591Z,99.90
2018-11-26T02:19:29.519Z,99.90
2018-11-26T02:21:59.447Z,99.90
2018-11-26T02:24:29.369Z,99.90
2018-11-26T02:26:59.352Z,99.90
2018-11-26T02:29:29.285Z,99.90
2018-11-26T02:31:59.173Z,99.90
2018-11-26T02:34:29.097Z,99.90
2018-11-26T02:36:58.975Z,99.90
2018-11-26T02:39:28.904Z,99.90
2018-11-26T02:41:58.800Z,99.90
2018-11-26T02:44:28.716Z,99.90
2018-11-26T02:46:58.611Z,99.90
2018-11-26T02:49:28.463Z,99.90
2018-11-26T02:51:58.376Z,99.90
2018-11-26T02:54:28.252Z,99.90
2018-11-26T02:56:58.173Z,99.90
2018-11-26T02:59:28.060Z,99.90
2018-11-26T03:01:57.973Z,99.90
2018-11-26T03:04:27.875Z,99.90
2018-11-26T03:06:57.799Z,99.90
2018-11-26T03:09:27.670Z,99.90
2018-11-26T03:11:57.588Z,99.90
2018-11-26T03:14:27.505Z,99.90
2018-11-26T03:16:57.407Z,99.90
2018-11-26T03:19:27.307Z,99.90
2018-11-26T03:21:57.426Z,99.90
2018-11-26T03:24:27.362Z,99.90
2018-11-26T03:26:57.308Z,99.90
2018-11-26T03:29:27.274Z,99.90
2018-11-26T03:31:57.199Z,99.90
2018-11-26T03:34:27.154Z,99.90
2018-11-26T03:36:57.140Z,99.90
2018-11-26T03:39:27.022Z,99.90
2018-11-26T03:41:56.948Z,99.90
2018-11-26T03:44:26.840Z,99.90
2018-11-26T03:46:56.736Z,99.90
2018-11-26T03:49:26.648Z,99.90
2018-11-26T03:51:56.523Z,99.90
2018-11-26T03:54:26.419Z,99.90
2018-11-26T03:56:56.344Z,99.90
2018-11-26T03:59:26.257Z,99.90
2018-11-26T04:01:56.177Z,99.90
2018-11-26T04:04:26.072Z,99.90
2018-11-26T04:06:55.956Z,99.90
2018-11-26T04:09:25.863Z,99.90
2018-11-26T04:11:55.783Z,99.90
2018-11-26T04:14:25.667Z,99.90
2018-11-26T04:16:55.621Z,99.90
2018-11-26T04:19:25.549Z,99.90
2018-11-26T04:21:55.478Z,99.90
2018-11-26T04:24:25.384Z,99.90
2018-11-26T04:26:55.335Z,99.90
2018-11-26T04:29:25.346Z,99.90
2018-11-26T04:31:55.383Z,99.90
2018-11-26T04:34:25.288Z,99.90
2018-11-26T04:36:55.315Z,99.90
2018-11-26T04:39:25.247Z,99.90
2018-11-26T04:41:55.193Z,99.90
2018-11-26T04:44:25.101Z,99.90
2018-11-26T04:46:55.257Z,99.90
2018-11-26T04:49:25.279Z,99.90
2018-11-26T04:51:55.171Z,99.90
2018-11-26T04:54:25.067Z,99.90
2018-11-26T04:56:54.977Z,99.90
2018-11-26T04:59:24.892Z,99.90
2018-11-26T05:01:54.838Z,99.90
2018-11-26T05:04:24.709Z,99.90
2018-11-26T05:06:54.645Z,99.90
2018-11-26T05:09:24.621Z,99.90
2018-11-26T05:11:54.491Z,99.90
2018-11-26T05:14:24.382Z,99.90
2018-11-26T05:16:54.277Z,99.90
2018-11-26T05:19:24.169Z,99.90
2018-11-26T05:21:54.020Z,99.90
2018-11-26T05:24:23.928Z,99.90
2018-11-26T05:26:53.830Z,99.90
2018-11-26T05:29:23.815Z,99.90
2018-11-26T05:31:53.712Z,99.90
2018-11-26T05:34:23.636Z,99.90
2018-11-26T05:36:53.562Z,99.90
2018-11-26T05:39:23.489Z,99.90
2018-11-26T05:41:53.472Z,99.90
2018-11-26T05:44:23.318Z,99.90
2018-11-26T05:46:56.079Z,99.90
2018-11-26T05:49:25.990Z,99.90
2018-11-26T05:51:55.863Z,99.90
2018-11-26T05:54:25.791Z,99.90
2018-11-26T05:56:55.704Z,99.90
2018-11-26T05:59:25.639Z,99.90
2018-11-26T06:01:55.648Z,99.90
2018-11-26T06:04:25.791Z,99.90
2018-11-26T06:06:55.752Z,99.90
2018-11-26T06:09:25.733Z,99.90
2018-11-26T06:11:55.588Z,99.90
2018-11-26T06:14:25.437Z,99.90
2018-11-26T06:16:55.375Z,99.90
2018-11-26T06:19:25.271Z,99.90
2018-11-26T06:21:55.142Z,99.90
2018-11-26T06:24:25.042Z,99.90
2018-11-26T06:26:55.037Z,99.90
2018-11-26T06:29:24.894Z,99.90
2018-11-26T06:31:54.763Z,99.90
2018-11-26T06:34:24.731Z,99.90
2018-11-26T06:36:55.134Z,99.90
2018-11-26T06:39:25.029Z,99.90
2018-11-26T06:41:54.913Z,99.90
2018-11-26T06:44:24.783Z,99.90
2018-11-26T06:46:54.734Z,99.90
2018-11-26T06:49:24.646Z,99.90
2018-11-26T06:51:54.529Z,99.90
2018-11-26T06:54:24.475Z,99.90
2018-11-26T06:56:54.386Z,99.90
2018-11-26T06:59:24.251Z,99.90
2018-11-26T07:01:54.502Z,99.90
2018-11-26T07:04:24.400Z,99.90
2018-11-26T07:06:54.251Z,99.90
2018-11-26T07:09:24.195Z,99.90
2018-11-26T07:11:54.072Z,99.90
2018-11-26T07:14:23.972Z,99.90
2018-11-26T07:16:53.827Z,99.90
2018-11-26T07:19:23.796Z,99.90
2018-11-26T07:21:53.673Z,99.90
2018-11-26T07:24:23.524Z,99.90
2018-11-26T07:26:53.383Z,99.90
2018-11-26T07:29:24.325Z,99.90
2018-11-26T07:31:53.142Z,99.90
2018-11-26T07:34:23.030Z,99.90
2018-11-26T07:36:52.891Z,99.90
2018-11-26T07:39:22.731Z,99.90
2018-11-26T07:41:52.645Z,99.90
2018-11-26T07:44:22.514Z,99.90
2018-11-26T07:46:52.390Z,99.90
2018-11-26T07:49:23.371Z,99.90
2018-11-26T07:51:53.169Z,99.90
2018-11-26T07:54:23.043Z,99.90
2018-11-26T07:56:52.915Z,99.90
2018-11-26T07:59:22.787Z,99.90
2018-11-26T08:01:52.646Z,99.90
2018-11-26T08:04:22.512Z,99.90
2018-11-26T08:06:52.349Z,99.90
2018-11-26T08:09:22.244Z,99.90
2018-11-26T08:11:52.076Z,99.90
2018-11-26T08:14:21.964Z,99.90
2018-11-26T08:16:51.857Z,99.90
2018-11-26T08:19:21.747Z,99.90
2018-11-26T08:21:51.625Z,99.90
2018-11-26T08:24:21.544Z,99.90
2018-11-26T08:26:51.475Z,99.90
2018-11-26T08:29:21.365Z,99.90
2018-11-26T08:31:51.194Z,99.90
2018-11-26T08:34:21.053Z,99.90
2018-11-26T08:36:54.982Z,99.90
2018-11-26T08:39:30.249Z,99.90
2018-11-26T08:42:00.112Z,99.90
2018-11-26T08:44:52.243Z,99.90
2018-11-26T08:47:28.331Z,99.90
2018-11-26T08:49:58.232Z,99.90
2018-11-26T08:52:28.121Z,99.90
2018-11-26T08:54:57.989Z,99.90
2018-11-26T08:57:27.862Z,99.90
2018-11-26T08:59:57.719Z,99.90
2018-11-26T09:02:33.686Z,99.90
2018-11-26T09:05:08.840Z,99.90
2018-11-26T09:07:38.707Z,99.90
2018-11-26T09:10:09.197Z,99.90
2018-11-26T09:12:39.073Z,99.90
2018-11-26T09:15:10.494Z,99.90
2018-11-26T09:17:40.341Z,99.90
2018-11-26T09:20:11.591Z,99.90
2018-11-26T09:22:41.464Z,99.90
2018-11-26T09:25:12.887Z,99.90
2018-11-26T09:27:42.733Z,99.20
2018-11-26T09:30:14.391Z,99.00
2018-11-26T09:32:44.446Z,97.90
2018-11-26T09:35:16.748Z,97.20
2018-11-26T09:37:46.623Z,97.20
2018-11-26T09:40:17.599Z,96.30
2018-11-26T09:42:47.466Z,96.20
2018-11-26T09:45:19.045Z,96.50
2018-11-26T09:47:48.915Z,96.50
2018-11-26T09:50:20.926Z,94.80
2018-11-26T09:52:50.790Z,94.30
2018-11-26T09:55:20.643Z,94.00
2018-11-26T09:57:50.565Z,93.30
2018-11-26T10:00:20.843Z,93.70
2018-11-26T10:02:52.246Z,93.50
2018-11-26T10:05:24.934Z,91.60
2018-11-26T10:07:54.819Z,91.30
2018-11-26T10:10:24.796Z,91.60
2018-11-26T10:12:54.789Z,91.80
2018-11-26T10:15:27.036Z,91.90
2018-11-26T10:17:56.924Z,91.40
2018-11-26T10:20:26.799Z,90.20
2018-11-26T10:22:56.671Z,89.50
2018-11-26T10:25:26.510Z,89.80
2018-11-26T10:27:56.385Z,89.20
2018-11-26T10:30:26.279Z,89.20
2018-11-26T10:32:56.122Z,89.50
2018-11-26T10:35:26.047Z,89.50
2018-11-26T10:37:55.929Z,88.70
2018-11-26T10:40:27.532Z,89.40
2018-11-26T10:42:58.553Z,88.50
2018-11-26T10:45:28.272Z,88.50
2018-11-26T10:47:58.134Z,87.80
2018-11-26T10:50:28.005Z,88.00
2018-11-26T10:52:59.679Z,87.90
2018-11-26T10:55:37.899Z,85.50
2018-11-26T10:58:08.490Z,85.20
2018-11-26T11:00:39.390Z,84.60
2018-11-26T11:03:09.248Z,83.70
2018-11-26T11:05:39.659Z,83.60
2018-11-26T11:08:09.561Z,83.30
2018-11-26T11:10:39.396Z,82.60
2018-11-26T11:13:09.314Z,81.90
2018-11-26T11:15:39.189Z,81.60
2018-11-26T11:18:09.254Z,81.20
2018-11-26T11:20:39.128Z,81.10
2018-11-26T11:23:09.978Z,82.60
2018-11-26T11:25:39.876Z,82.90
2018-11-26T11:28:09.727Z,82.30
2018-11-26T11:30:39.636Z,82.00
2018-11-26T11:35:38.523Z,83.00
2018-11-26T11:38:08.395Z,83.40
2018-11-26T11:40:38.326Z,82.10
2018-11-26T11:43:08.224Z,82.60
2018-11-26T11:45:38.090Z,82.40
2018-11-26T11:48:08.067Z,84.10
2018-11-26T11:50:37.933Z,83.20
2018-11-26T11:53:07.769Z,83.70
2018-11-26T11:55:37.630Z,83.90
2018-11-26T11:58:07.477Z,84.10
2018-11-26T12:00:40.464Z,83.40
2018-11-26T12:03:13.513Z,83.70
2018-11-26T12:05:43.397Z,84.10
2018-11-26T12:08:13.269Z,84.00
2018-11-26T12:10:43.192Z,84.10
2018-11-26T12:13:14.670Z,84.10
2018-11-26T12:15:47.951Z,84.80
2018-11-26T12:18:17.781Z,84.80
2018-11-26T12:20:47.667Z,85.00
2018-11-26T12:23:17.526Z,85.40
2018-11-26T12:25:47.377Z,85.30
2018-11-26T12:28:17.236Z,85.20
2018-11-26T12:30:50.919Z,85.70
2018-11-26T12:33:21.588Z,89.00
2018-11-26T12:35:51.507Z,86.30
2018-11-26T12:38:21.361Z,85.40
2018-11-26T12:40:51.225Z,84.20
2018-11-26T12:43:21.069Z,85.30
2018-11-26T12:45:50.962Z,84.80
2018-11-26T12:48:20.826Z,83.50
2018-11-26T12:50:50.713Z,84.50
2018-11-26T12:53:20.596Z,84.10
2018-11-26T12:55:50.469Z,85.60
2018-11-26T12:58:20.352Z,85.00
2018-11-26T13:00:50.236Z,85.50
2018-11-26T13:03:20.192Z,84.40
2018-11-26T13:05:50.075Z,85.30
2018-11-26T13:08:19.950Z,84.80
2018-11-26T13:10:49.816Z,84.40
2018-11-26T13:13:19.682Z,84.20
2018-11-26T13:15:49.585Z,84.80
2018-11-26T13:18:19.446Z,84.70
2018-11-26T13:20:49.331Z,84.90
2018-11-26T13:23:19.298Z,84.70
2018-11-26T13:26:03.932Z,84.50
2018-11-26T13:28:33.801Z,83.20
2018-11-26T13:31:03.667Z,82.90
2018-11-26T13:33:33.537Z,82.90
2018-11-26T13:36:03.480Z,83.30
2018-11-26T13:38:33.373Z,82.30
2018-11-26T13:41:03.266Z,81.00
2018-11-26T13:44:57.709Z,80.80
2018-11-26T13:47:27.624Z,80.20
2018-11-26T13:49:57.518Z,79.40
2018-11-26T13:52:27.414Z,78.90
2018-11-26T13:54:57.369Z,78.40
2018-11-26T13:57:27.351Z,77.30
2018-11-26T13:59:57.256Z,76.10
2018-11-26T14:02:27.171Z,75.70
2018-11-26T14:04:57.132Z,75.60
2018-11-26T14:07:27.065Z,74.50
2018-11-26T14:09:57.016Z,73.30
2018-11-26T14:12:26.856Z,72.70
2018-11-26T14:14:56.716Z,72.70
2018-11-26T14:17:26.666Z,72.90
2018-11-26T14:19:56.568Z,73.00
2018-11-26T14:22:26.479Z,72.80
2018-11-26T14:24:56.416Z,72.40
2018-11-26T14:27:26.330Z,73.10
2018-11-26T14:29:56.218Z,72.50
2018-11-26T14:32:28.082Z,72.40
2018-11-26T14:34:58.007Z,72.90
2018-11-26T14:37:27.885Z,72.50
2018-11-26T14:39:57.968Z,72.80
2018-11-26T14:42:27.899Z,73.10
2018-11-26T14:44:57.777Z,73.50
2018-11-26T14:47:27.672Z,73.30
2018-11-26T14:49:57.815Z,72.10
2018-11-26T14:52:28.792Z,71.70
2018-11-26T14:54:58.659Z,72.00
2018-11-26T14:57:28.516Z,72.70
2018-11-26T14:59:58.436Z,73.90
2018-11-26T15:02:28.422Z,72.20
2018-11-26T15:04:59.481Z,72.20
2018-11-26T15:07:29.339Z,72.50
2018-11-26T15:09:59.266Z,73.80
2018-11-26T15:12:29.151Z,73.00
2018-11-26T15:14:59.198Z,73.40
2018-11-26T15:17:29.193Z,73.80
2018-11-26T15:19:59.129Z,74.00
2018-11-26T15:22:29.000Z,74.10
2018-11-26T15:24:59.497Z,74.50
2018-11-26T15:27:29.420Z,75.40
2018-11-26T15:29:59.373Z,74.50
2018-11-26T15:32:29.293Z,74.60
2018-11-26T15:34:59.189Z,74.80
2018-11-26T15:37:29.155Z,75.40
2018-11-26T15:39:58.939Z,76.00
2018-11-26T15:42:29.059Z,76.60
2018-11-26T15:44:58.760Z,77.30
2018-11-26T15:47:28.659Z,77.40
2018-11-26T15:49:58.550Z,77.70
2018-11-26T15:52:28.416Z,78.10
2018-11-26T15:54:58.277Z,78.40
2018-11-26T15:57:28.137Z,78.40
2018-11-26T15:59:57.999Z,78.50
2018-11-26T16:02:27.862Z,79.00
2018-11-26T16:05:04.522Z,78.90
2018-11-26T16:07:34.394Z,79.40
2018-11-26T16:10:04.847Z,80.50
2018-11-26T16:12:35.686Z,80.20
2018-11-26T16:15:09.668Z,80.00
2018-11-26T16:17:39.705Z,80.30
2018-11-26T16:20:14.820Z,80.70
2018-11-26T16:22:44.765Z,81.40
2018-11-26T16:25:16.801Z,81.20
2018-11-26T16:27:46.696Z,81.50
2018-11-26T16:30:17.667Z,81.90
2018-11-26T16:32:57.202Z,82.00
2018-11-26T16:35:31.939Z,82.00
2018-11-26T16:38:02.132Z,82.30
2018-11-26T16:40:32.026Z,81.70
2018-11-26T16:43:01.924Z,82.10
2018-11-26T16:45:31.793Z,82.30
2018-11-26T16:48:01.784Z,82.60
2018-11-26T16:50:34.614Z,82.80
2018-11-26T16:53:04.489Z,82.80
2018-11-26T16:55:34.407Z,82.50
2018-11-26T16:58:04.561Z,82.90
2018-11-26T17:00:34.455Z,83.00
2018-11-26T17:03:04.321Z,82.60
2018-11-26T17:05:36.076Z,82.10
2018-11-26T17:08:08.577Z,82.60
2018-11-26T17:10:38.492Z,81.90
2018-11-26T17:13:08.716Z,81.20
2018-11-26T17:15:38.748Z,80.70
2018-11-26T17:18:08.968Z,79.80
2018-11-26T17:20:39.089Z,79.50
2018-11-26T17:23:09.153Z,79.10
2018-11-26T17:25:39.045Z,79.20
2018-11-26T17:28:08.958Z,79.10
2018-11-26T17:30:40.248Z,78.70
2018-11-26T17:33:11.814Z,78.50
2018-11-26T17:35:41.690Z,78.40
2018-11-26T17:38:11.595Z,78.70
2018-11-26T17:40:41.634Z,79.10
2018-11-26T17:43:14.649Z,78.70
2018-11-26T17:45:44.516Z,79.00
2018-11-26T17:54:32.494Z,79.20
2018-11-26T17:57:02.407Z,78.50
2018-11-26T17:59:32.245Z,78.50
2018-11-26T18:02:03.133Z,78.90
2018-11-26T18:04:33.011Z,79.00
2018-11-26T18:07:02.895Z,78.60
2018-11-26T18:09:32.832Z,79.10
2018-11-26T18:12:02.746Z,79.00
2018-11-26T18:14:34.659Z,78.70
2018-11-26T18:17:04.532Z,78.90
2018-11-26T18:19:34.396Z,80.10
2018-11-26T18:22:04.320Z,79.20
2018-11-26T18:24:34.227Z,78.90
2018-11-26T18:27:04.381Z,78.60
2018-11-26T18:29:34.239Z,79.80
2018-11-26T18:32:04.149Z,79.30
2018-11-26T18:34:34.170Z,79.00
2018-11-26T18:37:04.110Z,79.30
2018-11-26T18:39:34.162Z,79.30
2018-11-26T18:42:04.064Z,79.30
2018-11-26T18:44:33.946Z,79.10
2018-11-26T18:47:03.905Z,79.30
2018-11-26T18:49:33.779Z,79.20
2018-11-26T18:52:03.679Z,79.30
2018-11-26T18:54:33.577Z,79.10
2018-11-26T18:57:03.451Z,79.10
2018-11-26T18:59:33.562Z,79.10
2018-11-26T19:02:03.445Z,79.30
2018-11-26T19:04:34.258Z,79.90
2018-11-26T19:07:04.144Z,79.30
2018-11-26T19:09:34.038Z,79.60
2018-11-26T19:12:04.156Z,79.10
2018-11-26T19:14:33.884Z,78.70
2018-11-26T19:17:03.722Z,79.40
2018-11-26T19:19:41.895Z,79.00
2018-11-26T19:22:06.531Z,78.80
2018-11-26T19:24:36.481Z,78.10
2018-11-26T19:27:06.474Z,78.50
2018-11-26T19:29:36.374Z,78.50
2018-11-26T19:32:07.087Z,79.00
2018-11-26T19:34:36.974Z,79.40
2018-11-26T19:37:06.910Z,78.30
2018-11-26T19:39:36.813Z,77.50
2018-11-26T19:42:06.692Z,77.40
2018-11-26T19:44:36.729Z,77.70
2018-11-26T19:47:06.693Z,78.00
2018-11-26T19:49:36.598Z,78.50
2018-11-26T19:52:06.497Z,78.70
2018-11-26T19:54:36.379Z,79.00
2018-11-26T19:57:06.484Z,78.90
2018-11-26T19:59:36.350Z,78.40
2018-11-26T20:02:06.201Z,78.60
2018-11-26T20:04:48.600Z,78.70
2018-11-26T20:07:18.470Z,78.60
2018-11-26T20:09:55.077Z,78.10
2018-11-26T20:12:24.990Z,78.10
2018-11-26T20:14:54.894Z,77.40
2018-11-26T20:17:24.874Z,77.60
2018-11-26T20:19:54.805Z,77.60
2018-11-26T20:22:24.960Z,77.90
2018-11-26T20:24:54.914Z,77.70
2018-11-26T20:27:26.691Z,77.30
2018-11-26T20:29:57.721Z,77.50
2018-11-26T20:32:30.397Z,77.40
2018-11-26T20:35:00.621Z,77.00
2018-11-26T20:37:30.568Z,76.70
2018-11-26T20:40:00.641Z,76.60
2018-11-26T20:42:30.785Z,76.70
2018-11-26T20:45:00.881Z,76.40
2018-11-26T20:47:30.808Z,76.50
2018-11-26T20:50:01.152Z,76.70
2018-11-26T20:52:31.311Z,77.10
2018-11-26T20:55:02.179Z,76.90
2018-11-26T20:57:33.399Z,76.80
2018-11-26T21:00:03.683Z,76.90
2018-11-26T21:02:33.964Z,76.50
2018-11-26T21:05:05.290Z,76.90
2018-11-26T21:07:35.823Z,76.90
2018-11-26T21:10:09.117Z,77.10
2018-11-26T21:12:39.135Z,76.40
2018-11-26T21:15:16.323Z,76.20
2018-11-26T21:17:52.756Z,76.20
2018-11-26T21:20:26.981Z,76.70
2018-11-26T21:22:58.095Z,76.60
2018-11-26T21:25:28.008Z,75.60
2018-11-26T21:27:57.854Z,75.70
2018-11-26T21:30:27.720Z,75.80
2018-11-26T21:32:57.556Z,75.80
2018-11-26T21:35:27.402Z,75.40
2018-11-26T21:37:57.320Z,75.90
2018-11-26T21:40:27.200Z,76.10
2018-11-26T21:42:57.045Z,76.20
2018-11-26T21:45:32.952Z,76.90
2018-11-26T21:48:02.798Z,76.70
2018-11-26T21:50:32.702Z,77.20
2018-11-26T21:53:02.592Z,78.30
2018-11-26T21:55:32.452Z,77.60
2018-11-26T21:58:02.480Z,76.90
2018-11-26T22:00:33.150Z,77.00
2018-11-26T22:03:08.431Z,77.50
2018-11-26T22:05:39.706Z,76.80
2018-11-26T22:08:10.900Z,77.10
2018-11-26T22:10:44.071Z,77.30
2018-11-26T22:13:22.263Z,76.80
2018-11-26T22:15:52.157Z,76.90
2018-11-26T22:18:22.038Z,76.30
2018-11-26T22:20:51.913Z,75.80
2018-11-26T22:23:21.770Z,76.60
2018-11-26T22:25:51.707Z,75.90
2018-11-26T22:28:21.565Z,75.90
2018-11-26T22:30:51.608Z,75.70
2018-11-26T22:33:21.717Z,75.50
2018-11-26T22:35:52.031Z,75.70
2018-11-26T22:38:22.210Z,75.70
2018-11-26T22:40:52.659Z,75.80
2018-11-26T22:43:22.617Z,75.90
2018-11-26T22:45:52.524Z,76.20
2018-11-26T22:48:22.684Z,75.80
2018-11-26T22:50:52.762Z,75.90
2018-11-26T22:53:22.796Z,75.60
2018-11-26T22:55:52.675Z,75.60
2018-11-26T22:58:22.722Z,75.60
2018-11-26T23:00:54.260Z,75.50
2018-11-26T23:03:27.258Z,75.10
2018-11-26T23:05:58.214Z,75.20
2018-11-26T23:08:28.559Z,75.50
2018-11-26T23:10:58.487Z,75.80
2018-11-26T23:13:28.455Z,75.40
2018-11-26T23:15:58.510Z,75.60
2018-11-26T23:18:30.817Z,76.10
2018-11-26T23:21:00.715Z,76.30
2018-11-26T23:23:30.682Z,76.50
2018-11-26T23:26:00.579Z,76.50
2018-11-26T23:28:30.635Z,76.30
2018-11-26T23:31:00.589Z,76.60
2018-11-26T23:33:30.511Z,76.40
2018-11-26T23:36:01.529Z,77.00
2018-11-26T23:38:31.400Z,76.70
2018-11-26T23:41:01.344Z,77.00
2018-11-26T23:43:31.362Z,76.80
2018-11-26T23:46:01.553Z,77.20
2018-11-26T23:48:32.633Z,77.30
2018-11-26T23:51:02.635Z,77.30
2018-11-26T23:53:32.537Z,77.50
2018-11-26T23:56:02.406Z,77.60
2018-11-26T23:58:32.418Z,77.30
